sensor_id;sensor_type;location;lat;lon;timestamp;P1;durP1;ratioP1;P2;durP2;ratioP2
19095;SDS011;9680;52.520;13.332;2023-04-03T00:00:10;6.33;;;1.40;;
19095;SDS011;9680;52.520;13.332;2023-04-03T00:02:37;5.10;;;1.13;;
19095;SDS011;9680;52.520;13.332;2023-04-03T00:05:06;4.00;;;1.10;;
19095;SDS011;9680;52.520;13.332;2023-04-03T00:07:34;5.13;;;1.17;;
19095;SDS011;9680;52.520;13.332;2023-04-03T00:10:01;6.53;;;1.27;;
19095;SDS011;9680;52.520;13.332;2023-04-03T00:12:28;2.93;;;1.00;;
19095;SDS011;9680;52.520;13.332;2023-04-03T00:14:55;3.13;;;0.90;;
19095;SDS011;9680;52.520;13.332;2023-04-03T00:17:22;3.43;;;1.23;;
19095;SDS011;9680;52.520;13.332;2023-04-03T00:19:48;5.30;;;1.00;;
19095;SDS011;9680;52.520;13.332;2023-04-03T00:22:15;4.00;;;1.00;;
19095;SDS011;9680;52.520;13.332;2023-04-03T00:24:44;4.50;;;1.10;;
19095;SDS011;9680;52.520;13.332;2023-04-03T00:27:11;4.97;;;1.20;;
19095;SDS011;9680;52.520;13.332;2023-04-03T00:29:38;6.90;;;1.40;;
19095;SDS011;9680;52.520;13.332;2023-04-03T00:32:05;2.90;;;1.10;;
19095;SDS011;9680;52.520;13.332;2023-04-03T00:34:31;6.77;;;1.00;;
19095;SDS011;9680;52.520;13.332;2023-04-03T00:36:58;5.17;;;1.27;;
19095;SDS011;9680;52.520;13.332;2023-04-03T00:39:25;6.27;;;1.30;;
19095;SDS011;9680;52.520;13.332;2023-04-03T00:41:54;6.37;;;1.23;;
19095;SDS011;9680;52.520;13.332;2023-04-03T00:44:22;5.37;;;1.33;;
19095;SDS011;9680;52.520;13.332;2023-04-03T00:47:10;7.13;;;1.27;;
19095;SDS011;9680;52.520;13.332;2023-04-03T00:49:39;3.77;;;1.07;;
19095;SDS011;9680;52.520;13.332;2023-04-03T00:52:08;6.10;;;1.50;;
19095;SDS011;9680;52.520;13.332;2023-04-03T00:54:39;4.73;;;1.20;;
19095;SDS011;9680;52.520;13.332;2023-04-03T00:57:09;6.50;;;1.30;;
19095;SDS011;9680;52.520;13.332;2023-04-03T00:59:38;4.13;;;1.07;;
19095;SDS011;9680;52.520;13.332;2023-04-03T01:02:09;4.03;;;1.00;;
19095;SDS011;9680;52.520;13.332;2023-04-03T01:04:36;5.53;;;1.40;;
19095;SDS011;9680;52.520;13.332;2023-04-03T01:07:06;4.63;;;1.20;;
19095;SDS011;9680;52.520;13.332;2023-04-03T01:09:34;6.07;;;1.23;;
19095;SDS011;9680;52.520;13.332;2023-04-03T01:12:17;5.83;;;1.20;;
19095;SDS011;9680;52.520;13.332;2023-04-03T01:14:48;3.13;;;1.17;;
19095;SDS011;9680;52.520;13.332;2023-04-03T01:17:27;5.77;;;1.30;;
19095;SDS011;9680;52.520;13.332;2023-04-03T01:19:57;6.90;;;1.40;;
19095;SDS011;9680;52.520;13.332;2023-04-03T01:22:40;5.10;;;1.10;;
19095;SDS011;9680;52.520;13.332;2023-04-03T01:25:12;5.37;;;1.40;;
19095;SDS011;9680;52.520;13.332;2023-04-03T01:27:40;4.80;;;1.33;;
19095;SDS011;9680;52.520;13.332;2023-04-03T01:30:07;8.87;;;1.20;;
19095;SDS011;9680;52.520;13.332;2023-04-03T01:32:37;6.30;;;1.33;;
19095;SDS011;9680;52.520;13.332;2023-04-03T01:35:04;6.50;;;1.10;;
19095;SDS011;9680;52.520;13.332;2023-04-03T01:37:33;5.20;;;1.20;;
19095;SDS011;9680;52.520;13.332;2023-04-03T01:39:59;6.20;;;1.37;;
19095;SDS011;9680;52.520;13.332;2023-04-03T01:42:26;9.00;;;1.30;;
19095;SDS011;9680;52.520;13.332;2023-04-03T01:44:53;3.17;;;1.00;;
19095;SDS011;9680;52.520;13.332;2023-04-03T01:47:20;6.20;;;1.33;;
19095;SDS011;9680;52.520;13.332;2023-04-03T01:49:49;5.43;;;0.80;;
19095;SDS011;9680;52.520;13.332;2023-04-03T01:52:15;6.30;;;1.40;;
19095;SDS011;9680;52.520;13.332;2023-04-03T01:54:42;10.63;;;1.20;;
19095;SDS011;9680;52.520;13.332;2023-04-03T01:57:09;6.00;;;1.27;;
19095;SDS011;9680;52.520;13.332;2023-04-03T01:59:37;5.77;;;1.30;;
19095;SDS011;9680;52.520;13.332;2023-04-03T02:02:03;4.83;;;0.93;;
19095;SDS011;9680;52.520;13.332;2023-04-03T02:04:30;7.43;;;1.50;;
19095;SDS011;9680;52.520;13.332;2023-04-03T02:06:58;4.87;;;1.20;;
19095;SDS011;9680;52.520;13.332;2023-04-03T02:09:25;6.33;;;1.23;;
19095;SDS011;9680;52.520;13.332;2023-04-03T02:11:52;4.63;;;1.13;;
19095;SDS011;9680;52.520;13.332;2023-04-03T02:14:19;7.80;;;1.30;;
19095;SDS011;9680;52.520;13.332;2023-04-03T02:16:47;4.40;;;1.00;;
19095;SDS011;9680;52.520;13.332;2023-04-03T02:19:13;5.83;;;1.30;;
19095;SDS011;9680;52.520;13.332;2023-04-03T02:21:41;7.03;;;1.20;;
19095;SDS011;9680;52.520;13.332;2023-04-03T02:24:09;7.07;;;0.97;;
19095;SDS011;9680;52.520;13.332;2023-04-03T02:26:36;3.33;;;0.87;;
19095;SDS011;9680;52.520;13.332;2023-04-03T02:29:03;3.93;;;1.20;;
19095;SDS011;9680;52.520;13.332;2023-04-03T02:31:31;8.63;;;1.20;;
19095;SDS011;9680;52.520;13.332;2023-04-03T02:34:00;3.97;;;1.37;;
19095;SDS011;9680;52.520;13.332;2023-04-03T02:36:27;5.67;;;1.37;;
19095;SDS011;9680;52.520;13.332;2023-04-03T02:38:57;6.60;;;1.10;;
19095;SDS011;9680;52.520;13.332;2023-04-03T02:41:25;6.07;;;1.20;;
19095;SDS011;9680;52.520;13.332;2023-04-03T02:43:59;8.40;;;1.23;;
19095;SDS011;9680;52.520;13.332;2023-04-03T02:46:25;5.37;;;1.30;;
19095;SDS011;9680;52.520;13.332;2023-04-03T02:48:52;5.23;;;1.33;;
19095;SDS011;9680;52.520;13.332;2023-04-03T02:51:19;4.50;;;1.27;;
19095;SDS011;9680;52.520;13.332;2023-04-03T02:53:46;7.10;;;1.43;;
19095;SDS011;9680;52.520;13.332;2023-04-03T02:56:17;7.60;;;1.50;;
19095;SDS011;9680;52.520;13.332;2023-04-03T02:58:46;6.67;;;1.50;;
19095;SDS011;9680;52.520;13.332;2023-04-03T03:01:15;4.23;;;1.47;;
19095;SDS011;9680;52.520;13.332;2023-04-03T03:03:41;10.63;;;1.67;;
19095;SDS011;9680;52.520;13.332;2023-04-03T03:06:09;6.73;;;1.37;;
19095;SDS011;9680;52.520;13.332;2023-04-03T03:08:38;7.67;;;1.57;;
19095;SDS011;9680;52.520;13.332;2023-04-03T03:11:05;10.70;;;1.43;;
19095;SDS011;9680;52.520;13.332;2023-04-03T03:13:32;5.33;;;1.10;;
19095;SDS011;9680;52.520;13.332;2023-04-03T03:16:01;9.43;;;1.93;;
19095;SDS011;9680;52.520;13.332;2023-04-03T03:18:28;7.10;;;1.73;;
19095;SDS011;9680;52.520;13.332;2023-04-03T03:20:56;9.57;;;1.47;;
19095;SDS011;9680;52.520;13.332;2023-04-03T03:23:26;5.50;;;1.70;;
19095;SDS011;9680;52.520;13.332;2023-04-03T03:25:55;4.10;;;1.70;;
19095;SDS011;9680;52.520;13.332;2023-04-03T03:28:23;7.97;;;1.70;;
19095;SDS011;9680;52.520;13.332;2023-04-03T03:30:50;8.57;;;1.57;;
19095;SDS011;9680;52.520;13.332;2023-04-03T03:33:20;10.80;;;1.87;;
19095;SDS011;9680;52.520;13.332;2023-04-03T03:35:46;7.17;;;1.67;;
19095;SDS011;9680;52.520;13.332;2023-04-03T03:38:13;6.50;;;1.60;;
19095;SDS011;9680;52.520;13.332;2023-04-03T03:40:40;10.07;;;1.87;;
19095;SDS011;9680;52.520;13.332;2023-04-03T03:43:07;7.13;;;1.60;;
19095;SDS011;9680;52.520;13.332;2023-04-03T03:45:34;5.47;;;1.40;;
19095;SDS011;9680;52.520;13.332;2023-04-03T03:48:02;11.53;;;1.40;;
19095;SDS011;9680;52.520;13.332;2023-04-03T03:50:31;5.70;;;1.63;;
19095;SDS011;9680;52.520;13.332;2023-04-03T03:52:58;4.60;;;1.30;;
19095;SDS011;9680;52.520;13.332;2023-04-03T03:55:25;3.80;;;1.00;;
19095;SDS011;9680;52.520;13.332;2023-04-03T03:57:54;3.53;;;1.27;;
19095;SDS011;9680;52.520;13.332;2023-04-03T04:00:21;5.43;;;1.53;;
19095;SDS011;9680;52.520;13.332;2023-04-03T04:02:53;5.60;;;1.83;;
19095;SDS011;9680;52.520;13.332;2023-04-03T04:05:22;11.50;;;2.60;;
19095;SDS011;9680;52.520;13.332;2023-04-03T04:07:50;9.23;;;1.83;;
19095;SDS011;9680;52.520;13.332;2023-04-03T04:10:17;4.13;;;1.77;;
19095;SDS011;9680;52.520;13.332;2023-04-03T04:12:45;8.83;;;1.60;;
19095;SDS011;9680;52.520;13.332;2023-04-03T04:15:14;11.90;;;2.70;;
19095;SDS011;9680;52.520;13.332;2023-04-03T04:17:42;13.00;;;2.13;;
19095;SDS011;9680;52.520;13.332;2023-04-03T04:20:11;6.87;;;2.03;;
19095;SDS011;9680;52.520;13.332;2023-04-03T04:22:39;7.23;;;2.17;;
19095;SDS011;9680;52.520;13.332;2023-04-03T04:25:07;8.13;;;2.27;;
19095;SDS011;9680;52.520;13.332;2023-04-03T04:27:36;4.83;;;2.53;;
19095;SDS011;9680;52.520;13.332;2023-04-03T04:30:04;5.10;;;2.07;;
19095;SDS011;9680;52.520;13.332;2023-04-03T04:32:32;6.87;;;1.63;;
19095;SDS011;9680;52.520;13.332;2023-04-03T04:34:59;12.97;;;2.13;;
19095;SDS011;9680;52.520;13.332;2023-04-03T04:37:27;14.97;;;2.90;;
19095;SDS011;9680;52.520;13.332;2023-04-03T04:39:55;19.20;;;3.77;;
19095;SDS011;9680;52.520;13.332;2023-04-03T04:42:23;18.90;;;3.17;;
19095;SDS011;9680;52.520;13.332;2023-04-03T04:44:51;11.97;;;2.70;;
19095;SDS011;9680;52.520;13.332;2023-04-03T04:47:18;11.87;;;2.93;;
19095;SDS011;9680;52.520;13.332;2023-04-03T04:49:45;13.23;;;2.60;;
19095;SDS011;9680;52.520;13.332;2023-04-03T04:52:13;15.57;;;2.67;;
19095;SDS011;9680;52.520;13.332;2023-04-03T04:54:40;13.80;;;2.40;;
19095;SDS011;9680;52.520;13.332;2023-04-03T04:57:08;8.17;;;2.13;;
19095;SDS011;9680;52.520;13.332;2023-04-03T04:59:37;11.60;;;2.33;;
19095;SDS011;9680;52.520;13.332;2023-04-03T05:02:06;7.70;;;2.07;;
19095;SDS011;9680;52.520;13.332;2023-04-03T05:04:34;14.00;;;1.67;;
19095;SDS011;9680;52.520;13.332;2023-04-03T05:07:07;7.03;;;1.73;;
19095;SDS011;9680;52.520;13.332;2023-04-03T05:09:36;11.10;;;2.03;;
19095;SDS011;9680;52.520;13.332;2023-04-03T05:12:02;6.00;;;1.40;;
19095;SDS011;9680;52.520;13.332;2023-04-03T05:14:38;7.30;;;2.10;;
19095;SDS011;9680;52.520;13.332;2023-04-03T05:17:07;7.53;;;1.53;;
19095;SDS011;9680;52.520;13.332;2023-04-03T05:19:38;10.53;;;1.70;;
19095;SDS011;9680;52.520;13.332;2023-04-03T05:22:07;5.67;;;1.63;;
19095;SDS011;9680;52.520;13.332;2023-04-03T05:24:35;4.83;;;1.50;;
19095;SDS011;9680;52.520;13.332;2023-04-03T05:27:03;16.73;;;2.20;;
19095;SDS011;9680;52.520;13.332;2023-04-03T05:29:37;10.70;;;2.00;;
19095;SDS011;9680;52.520;13.332;2023-04-03T05:32:05;8.00;;;1.50;;
19095;SDS011;9680;52.520;13.332;2023-04-03T05:34:32;6.43;;;1.60;;
19095;SDS011;9680;52.520;13.332;2023-04-03T05:36:59;5.37;;;1.80;;
19095;SDS011;9680;52.520;13.332;2023-04-03T05:39:28;7.50;;;1.93;;
19095;SDS011;9680;52.520;13.332;2023-04-03T05:41:57;6.73;;;1.60;;
19095;SDS011;9680;52.520;13.332;2023-04-03T05:44:24;10.17;;;1.97;;
19095;SDS011;9680;52.520;13.332;2023-04-03T05:46:54;13.00;;;1.27;;
19095;SDS011;9680;52.520;13.332;2023-04-03T05:49:21;8.80;;;1.60;;
19095;SDS011;9680;52.520;13.332;2023-04-03T05:51:48;8.93;;;1.50;;
19095;SDS011;9680;52.520;13.332;2023-04-03T05:54:23;14.43;;;2.10;;
19095;SDS011;9680;52.520;13.332;2023-04-03T05:56:56;6.50;;;1.53;;
19095;SDS011;9680;52.520;13.332;2023-04-03T05:59:24;4.70;;;1.50;;
19095;SDS011;9680;52.520;13.332;2023-04-03T06:01:55;5.63;;;1.70;;
19095;SDS011;9680;52.520;13.332;2023-04-03T06:04:22;6.00;;;1.60;;
19095;SDS011;9680;52.520;13.332;2023-04-03T06:06:50;7.93;;;1.63;;
19095;SDS011;9680;52.520;13.332;2023-04-03T06:09:18;6.30;;;1.73;;
19095;SDS011;9680;52.520;13.332;2023-04-03T06:11:47;4.93;;;1.30;;
19095;SDS011;9680;52.520;13.332;2023-04-03T06:14:15;8.47;;;1.20;;
19095;SDS011;9680;52.520;13.332;2023-04-03T06:16:42;6.60;;;1.63;;
19095;SDS011;9680;52.520;13.332;2023-04-03T06:19:11;6.57;;;1.20;;
19095;SDS011;9680;52.520;13.332;2023-04-03T06:21:43;7.07;;;1.07;;
19095;SDS011;9680;52.520;13.332;2023-04-03T06:24:10;6.50;;;1.80;;
19095;SDS011;9680;52.520;13.332;2023-04-03T06:26:40;4.07;;;1.10;;
19095;SDS011;9680;52.520;13.332;2023-04-03T06:29:07;3.77;;;1.20;;
19095;SDS011;9680;52.520;13.332;2023-04-03T06:31:34;8.77;;;1.33;;
19095;SDS011;9680;52.520;13.332;2023-04-03T06:34:02;5.40;;;1.63;;
19095;SDS011;9680;52.520;13.332;2023-04-03T06:36:30;7.97;;;1.47;;
19095;SDS011;9680;52.520;13.332;2023-04-03T06:38:57;7.17;;;1.60;;
19095;SDS011;9680;52.520;13.332;2023-04-03T06:41:25;19.57;;;1.30;;
19095;SDS011;9680;52.520;13.332;2023-04-03T06:43:52;4.93;;;1.50;;
19095;SDS011;9680;52.520;13.332;2023-04-03T06:46:22;6.30;;;1.70;;
19095;SDS011;9680;52.520;13.332;2023-04-03T06:48:49;4.20;;;1.20;;
19095;SDS011;9680;52.520;13.332;2023-04-03T06:51:20;4.60;;;1.20;;
19095;SDS011;9680;52.520;13.332;2023-04-03T06:53:49;8.83;;;1.60;;
19095;SDS011;9680;52.520;13.332;2023-04-03T06:56:18;4.47;;;1.10;;
19095;SDS011;9680;52.520;13.332;2023-04-03T06:58:44;3.53;;;0.90;;
19095;SDS011;9680;52.520;13.332;2023-04-03T07:01:14;3.97;;;1.17;;
19095;SDS011;9680;52.520;13.332;2023-04-03T07:03:42;6.70;;;1.07;;
19095;SDS011;9680;52.520;13.332;2023-04-03T07:06:10;2.97;;;0.90;;
19095;SDS011;9680;52.520;13.332;2023-04-03T07:08:38;5.43;;;1.03;;
19095;SDS011;9680;52.520;13.332;2023-04-03T07:11:08;3.43;;;1.00;;
19095;SDS011;9680;52.520;13.332;2023-04-03T07:13:36;3.57;;;0.70;;
19095;SDS011;9680;52.520;13.332;2023-04-03T07:16:03;4.67;;;0.80;;
19095;SDS011;9680;52.520;13.332;2023-04-03T07:18:31;4.10;;;0.90;;
19095;SDS011;9680;52.520;13.332;2023-04-03T07:20:58;3.83;;;1.00;;
19095;SDS011;9680;52.520;13.332;2023-04-03T07:23:25;6.30;;;1.23;;
19095;SDS011;9680;52.520;13.332;2023-04-03T07:25:52;3.20;;;0.67;;
19095;SDS011;9680;52.520;13.332;2023-04-03T07:28:22;10.40;;;1.20;;
19095;SDS011;9680;52.520;13.332;2023-04-03T07:30:50;2.10;;;0.70;;
19095;SDS011;9680;52.520;13.332;2023-04-03T07:33:19;5.07;;;0.80;;
19095;SDS011;9680;52.520;13.332;2023-04-03T07:35:47;3.53;;;1.00;;
19095;SDS011;9680;52.520;13.332;2023-04-03T07:38:17;2.80;;;1.00;;
19095;SDS011;9680;52.520;13.332;2023-04-03T07:40:48;2.30;;;0.60;;
19095;SDS011;9680;52.520;13.332;2023-04-03T07:43:15;1.30;;;0.80;;
19095;SDS011;9680;52.520;13.332;2023-04-03T07:45:45;3.13;;;0.80;;
19095;SDS011;9680;52.520;13.332;2023-04-03T07:48:15;3.93;;;0.80;;
19095;SDS011;9680;52.520;13.332;2023-04-03T07:50:42;3.10;;;1.07;;
19095;SDS011;9680;52.520;13.332;2023-04-03T07:53:09;3.43;;;0.70;;
19095;SDS011;9680;52.520;13.332;2023-04-03T07:55:36;2.40;;;0.53;;
19095;SDS011;9680;52.520;13.332;2023-04-03T07:58:08;5.10;;;0.80;;
19095;SDS011;9680;52.520;13.332;2023-04-03T08:00:35;4.37;;;0.90;;
19095;SDS011;9680;52.520;13.332;2023-04-03T08:03:04;5.53;;;0.83;;
19095;SDS011;9680;52.520;13.332;2023-04-03T08:05:35;3.77;;;0.90;;
19095;SDS011;9680;52.520;13.332;2023-04-03T08:08:03;2.87;;;0.70;;
19095;SDS011;9680;52.520;13.332;2023-04-03T08:10:30;2.00;;;0.60;;
19095;SDS011;9680;52.520;13.332;2023-04-03T08:12:58;4.93;;;0.70;;
19095;SDS011;9680;52.520;13.332;2023-04-03T08:15:25;2.37;;;0.80;;
19095;SDS011;9680;52.520;13.332;2023-04-03T08:17:52;2.40;;;0.90;;
19095;SDS011;9680;52.520;13.332;2023-04-03T08:20:20;3.67;;;0.70;;
19095;SDS011;9680;52.520;13.332;2023-04-03T08:22:47;4.50;;;1.00;;
19095;SDS011;9680;52.520;13.332;2023-04-03T08:25:14;4.53;;;0.80;;
19095;SDS011;9680;52.520;13.332;2023-04-03T08:27:42;2.10;;;0.90;;
19095;SDS011;9680;52.520;13.332;2023-04-03T08:30:09;3.77;;;0.97;;
19095;SDS011;9680;52.520;13.332;2023-04-03T08:32:37;4.77;;;0.77;;
19095;SDS011;9680;52.520;13.332;2023-04-03T08:35:04;4.07;;;0.90;;
19095;SDS011;9680;52.520;13.332;2023-04-03T08:37:34;3.67;;;0.90;;
19095;SDS011;9680;52.520;13.332;2023-04-03T08:40:01;3.80;;;1.00;;
19095;SDS011;9680;52.520;13.332;2023-04-03T08:42:33;4.30;;;1.13;;
19095;SDS011;9680;52.520;13.332;2023-04-03T08:45:09;3.70;;;1.00;;
19095;SDS011;9680;52.520;13.332;2023-04-03T08:47:38;2.87;;;0.93;;
19095;SDS011;9680;52.520;13.332;2023-04-03T08:50:11;6.23;;;0.90;;
19095;SDS011;9680;52.520;13.332;2023-04-03T08:52:44;3.33;;;1.20;;
19095;SDS011;9680;52.520;13.332;2023-04-03T08:55:17;2.93;;;0.80;;
19095;SDS011;9680;52.520;13.332;2023-04-03T08:57:50;4.30;;;0.97;;
19095;SDS011;9680;52.520;13.332;2023-04-03T09:00:23;8.13;;;1.17;;
19095;SDS011;9680;52.520;13.332;2023-04-03T09:02:54;2.60;;;0.80;;
19095;SDS011;9680;52.520;13.332;2023-04-03T09:05:27;6.27;;;1.20;;
19095;SDS011;9680;52.520;13.332;2023-04-03T09:08:05;3.13;;;0.87;;
19095;SDS011;9680;52.520;13.332;2023-04-03T09:10:38;5.73;;;0.90;;
19095;SDS011;9680;52.520;13.332;2023-04-03T09:13:09;2.30;;;0.90;;
19095;SDS011;9680;52.520;13.332;2023-04-03T09:15:45;3.00;;;0.80;;
19095;SDS011;9680;52.520;13.332;2023-04-03T09:18:13;4.10;;;0.90;;
19095;SDS011;9680;52.520;13.332;2023-04-03T09:20:44;3.03;;;0.97;;
19095;SDS011;9680;52.520;13.332;2023-04-03T09:23:22;3.63;;;0.63;;
19095;SDS011;9680;52.520;13.332;2023-04-03T09:25:53;3.10;;;0.80;;
19095;SDS011;9680;52.520;13.332;2023-04-03T09:28:27;4.93;;;1.17;;
19095;SDS011;9680;52.520;13.332;2023-04-03T09:30:56;3.97;;;0.80;;
19095;SDS011;9680;52.520;13.332;2023-04-03T09:33:22;2.70;;;0.70;;
19095;SDS011;9680;52.520;13.332;2023-04-03T09:35:50;1.80;;;0.70;;
19095;SDS011;9680;52.520;13.332;2023-04-03T09:38:19;3.17;;;0.90;;
19095;SDS011;9680;52.520;13.332;2023-04-03T09:40:48;3.13;;;0.90;;
19095;SDS011;9680;52.520;13.332;2023-04-03T09:43:22;2.60;;;0.80;;
19095;SDS011;9680;52.520;13.332;2023-04-03T09:45:51;5.80;;;1.13;;
19095;SDS011;9680;52.520;13.332;2023-04-03T09:48:19;2.63;;;0.80;;
19095;SDS011;9680;52.520;13.332;2023-04-03T09:50:55;1.53;;;0.80;;
19095;SDS011;9680;52.520;13.332;2023-04-03T09:53:32;2.87;;;1.00;;
19095;SDS011;9680;52.520;13.332;2023-04-03T09:56:03;3.97;;;0.90;;
19095;SDS011;9680;52.520;13.332;2023-04-03T09:58:45;7.47;;;1.10;;
19095;SDS011;9680;52.520;13.332;2023-04-03T10:01:21;3.47;;;0.90;;
19095;SDS011;9680;52.520;13.332;2023-04-03T10:04:03;3.40;;;0.83;;
19095;SDS011;9680;52.520;13.332;2023-04-03T10:06:32;2.00;;;0.60;;
19095;SDS011;9680;52.520;13.332;2023-04-03T10:09:05;3.57;;;1.00;;
19095;SDS011;9680;52.520;13.332;2023-04-03T10:11:45;4.30;;;0.80;;
19095;SDS011;9680;52.520;13.332;2023-04-03T10:14:24;3.03;;;0.70;;
19095;SDS011;9680;52.520;13.332;2023-04-03T10:16:52;2.73;;;0.60;;
19095;SDS011;9680;52.520;13.332;2023-04-03T10:19:32;3.13;;;0.90;;
19095;SDS011;9680;52.520;13.332;2023-04-03T10:22:03;1.43;;;0.60;;
19095;SDS011;9680;52.520;13.332;2023-04-03T10:24:42;2.50;;;0.77;;
19095;SDS011;9680;52.520;13.332;2023-04-03T10:27:18;3.83;;;0.90;;
19095;SDS011;9680;52.520;13.332;2023-04-03T10:29:58;2.20;;;0.93;;
19095;SDS011;9680;52.520;13.332;2023-04-03T10:32:42;2.83;;;0.80;;
19095;SDS011;9680;52.520;13.332;2023-04-03T10:35:20;2.70;;;1.10;;
19095;SDS011;9680;52.520;13.332;2023-04-03T10:38:01;1.03;;;0.50;;
19095;SDS011;9680;52.520;13.332;2023-04-03T10:40:35;2.63;;;0.70;;
19095;SDS011;9680;52.520;13.332;2023-04-03T10:43:14;5.70;;;0.87;;
19095;SDS011;9680;52.520;13.332;2023-04-03T10:45:53;2.47;;;0.70;;
19095;SDS011;9680;52.520;13.332;2023-04-03T10:48:33;1.60;;;0.70;;
19095;SDS011;9680;52.520;13.332;2023-04-03T10:51:24;3.63;;;0.90;;
19095;SDS011;9680;52.520;13.332;2023-04-03T10:53:56;7.67;;;0.90;;
19095;SDS011;9680;52.520;13.332;2023-04-03T10:56:32;2.93;;;0.60;;
19095;SDS011;9680;52.520;13.332;2023-04-03T10:59:12;4.50;;;0.73;;
19095;SDS011;9680;52.520;13.332;2023-04-03T11:01:45;1.27;;;0.60;;
19095;SDS011;9680;52.520;13.332;2023-04-03T11:04:17;2.80;;;0.90;;
19095;SDS011;9680;52.520;13.332;2023-04-03T11:06:48;2.83;;;0.80;;
19095;SDS011;9680;52.520;13.332;2023-04-03T11:09:19;2.10;;;0.70;;
19095;SDS011;9680;52.520;13.332;2023-04-03T11:11:51;10.20;;;0.80;;
19095;SDS011;9680;52.520;13.332;2023-04-03T11:14:26;4.40;;;1.07;;
19095;SDS011;9680;52.520;13.332;2023-04-03T11:17:04;1.60;;;0.60;;
19095;SDS011;9680;52.520;13.332;2023-04-03T11:19:39;2.23;;;1.00;;
19095;SDS011;9680;52.520;13.332;2023-04-03T11:22:13;2.73;;;0.77;;
19095;SDS011;9680;52.520;13.332;2023-04-03T11:24:46;4.70;;;1.30;;
19095;SDS011;9680;52.520;13.332;2023-04-03T11:27:22;2.67;;;1.00;;
19095;SDS011;9680;52.520;13.332;2023-04-03T11:29:51;4.20;;;1.30;;
19095;SDS011;9680;52.520;13.332;2023-04-03T11:32:34;3.23;;;0.90;;
19095;SDS011;9680;52.520;13.332;2023-04-03T11:35:15;5.57;;;1.00;;
19095;SDS011;9680;52.520;13.332;2023-04-03T11:37:44;2.27;;;0.80;;
19095;SDS011;9680;52.520;13.332;2023-04-03T11:40:19;3.80;;;0.90;;
19095;SDS011;9680;52.520;13.332;2023-04-03T11:42:52;2.97;;;0.90;;
19095;SDS011;9680;52.520;13.332;2023-04-03T11:45:27;3.10;;;1.10;;
19095;SDS011;9680;52.520;13.332;2023-04-03T11:48:01;4.50;;;0.90;;
19095;SDS011;9680;52.520;13.332;2023-04-03T11:50:40;3.90;;;0.80;;
19095;SDS011;9680;52.520;13.332;2023-04-03T11:53:29;1.73;;;0.87;;
19095;SDS011;9680;52.520;13.332;2023-04-03T11:56:01;3.17;;;0.87;;
19095;SDS011;9680;52.520;13.332;2023-04-03T11:59:15;3.70;;;0.80;;
19095;SDS011;9680;52.520;13.332;2023-04-03T12:01:51;5.00;;;1.10;;
19095;SDS011;9680;52.520;13.332;2023-04-03T12:04:18;2.73;;;0.73;;
19095;SDS011;9680;52.520;13.332;2023-04-03T12:12:42;2.13;;;0.90;;
19095;SDS011;9680;52.520;13.332;2023-04-03T12:24:36;4.10;;;1.10;;
19095;SDS011;9680;52.520;13.332;2023-04-03T12:27:18;2.93;;;0.87;;
19095;SDS011;9680;52.520;13.332;2023-04-03T12:29:51;2.17;;;0.90;;
19095;SDS011;9680;52.520;13.332;2023-04-03T12:32:28;2.20;;;0.90;;
19095;SDS011;9680;52.520;13.332;2023-04-03T12:35:13;1.33;;;0.60;;
19095;SDS011;9680;52.520;13.332;2023-04-03T12:37:54;3.13;;;1.03;;
19095;SDS011;9680;52.520;13.332;2023-04-03T12:40:41;1.97;;;0.73;;
19095;SDS011;9680;52.520;13.332;2023-04-03T12:43:17;3.97;;;0.90;;
19095;SDS011;9680;52.520;13.332;2023-04-03T12:45:56;1.93;;;0.87;;
19095;SDS011;9680;52.520;13.332;2023-04-03T12:48:28;3.53;;;0.90;;
19095;SDS011;9680;52.520;13.332;2023-04-03T12:50:58;3.70;;;0.93;;
19095;SDS011;9680;52.520;13.332;2023-04-03T12:53:26;3.13;;;1.00;;
19095;SDS011;9680;52.520;13.332;2023-04-03T12:55:55;2.83;;;0.90;;
19095;SDS011;9680;52.520;13.332;2023-04-03T12:58:23;2.00;;;0.70;;
19095;SDS011;9680;52.520;13.332;2023-04-03T13:01:01;2.30;;;0.90;;
19095;SDS011;9680;52.520;13.332;2023-04-03T13:03:29;2.67;;;0.90;;
19095;SDS011;9680;52.520;13.332;2023-04-03T13:05:59;3.27;;;1.07;;
19095;SDS011;9680;52.520;13.332;2023-04-03T13:08:28;2.20;;;0.60;;
19095;SDS011;9680;52.520;13.332;2023-04-03T13:10:58;2.83;;;0.90;;
19095;SDS011;9680;52.520;13.332;2023-04-03T13:13:27;1.90;;;0.97;;
19095;SDS011;9680;52.520;13.332;2023-04-03T13:15:55;2.37;;;0.80;;
19095;SDS011;9680;52.520;13.332;2023-04-03T13:18:23;4.10;;;1.37;;
19095;SDS011;9680;52.520;13.332;2023-04-03T13:20:51;5.67;;;1.10;;
19095;SDS011;9680;52.520;13.332;2023-04-03T13:23:20;6.40;;;1.00;;
19095;SDS011;9680;52.520;13.332;2023-04-03T13:25:48;4.60;;;1.00;;
19095;SDS011;9680;52.520;13.332;2023-04-03T13:28:17;3.67;;;1.13;;
19095;SDS011;9680;52.520;13.332;2023-04-03T13:30:55;3.03;;;0.90;;
19095;SDS011;9680;52.520;13.332;2023-04-03T13:33:27;5.10;;;1.03;;
19095;SDS011;9680;52.520;13.332;2023-04-03T13:35:58;4.57;;;0.90;;
19095;SDS011;9680;52.520;13.332;2023-04-03T13:38:31;3.20;;;1.07;;
19095;SDS011;9680;52.520;13.332;2023-04-03T13:40:59;1.00;;;0.60;;
19095;SDS011;9680;52.520;13.332;2023-04-03T13:43:30;2.50;;;1.03;;
19095;SDS011;9680;52.520;13.332;2023-04-03T13:46:00;2.47;;;0.90;;
19095;SDS011;9680;52.520;13.332;2023-04-03T13:48:35;1.90;;;0.80;;
19095;SDS011;9680;52.520;13.332;2023-04-03T13:51:04;3.93;;;0.90;;
19095;SDS011;9680;52.520;13.332;2023-04-03T13:53:41;6.33;;;0.90;;
19095;SDS011;9680;52.520;13.332;2023-04-03T13:56:16;2.10;;;0.70;;
19095;SDS011;9680;52.520;13.332;2023-04-03T13:58:52;2.10;;;0.80;;
19095;SDS011;9680;52.520;13.332;2023-04-03T14:01:24;3.07;;;0.87;;
19095;SDS011;9680;52.520;13.332;2023-04-03T14:03:54;5.30;;;1.03;;
19095;SDS011;9680;52.520;13.332;2023-04-03T14:06:22;2.80;;;0.90;;
19095;SDS011;9680;52.520;13.332;2023-04-03T14:08:51;2.57;;;0.87;;
19095;SDS011;9680;52.520;13.332;2023-04-03T14:11:19;6.77;;;1.00;;
19095;SDS011;9680;52.520;13.332;2023-04-03T14:13:48;3.13;;;0.93;;
19095;SDS011;9680;52.520;13.332;2023-04-03T14:16:16;1.50;;;0.70;;
19095;SDS011;9680;52.520;13.332;2023-04-03T14:18:45;2.70;;;1.00;;
19095;SDS011;9680;52.520;13.332;2023-04-03T14:21:13;3.23;;;1.00;;
19095;SDS011;9680;52.520;13.332;2023-04-03T14:23:42;3.53;;;0.90;;
19095;SDS011;9680;52.520;13.332;2023-04-03T14:26:11;2.90;;;0.90;;
19095;SDS011;9680;52.520;13.332;2023-04-03T14:28:41;4.53;;;1.17;;
19095;SDS011;9680;52.520;13.332;2023-04-03T14:31:09;3.17;;;1.00;;
19095;SDS011;9680;52.520;13.332;2023-04-03T14:33:36;2.17;;;1.07;;
19095;SDS011;9680;52.520;13.332;2023-04-03T14:36:05;2.63;;;0.80;;
19095;SDS011;9680;52.520;13.332;2023-04-03T14:38:39;3.43;;;1.10;;
19095;SDS011;9680;52.520;13.332;2023-04-03T14:41:06;3.37;;;1.10;;
19095;SDS011;9680;52.520;13.332;2023-04-03T14:46:02;3.87;;;0.90;;
19095;SDS011;9680;52.520;13.332;2023-04-03T14:48:29;2.20;;;0.93;;
19095;SDS011;9680;52.520;13.332;2023-04-03T14:50:56;2.20;;;1.20;;
19095;SDS011;9680;52.520;13.332;2023-04-03T14:53:23;8.40;;;1.17;;
19095;SDS011;9680;52.520;13.332;2023-04-03T14:55:51;2.70;;;0.93;;
19095;SDS011;9680;52.520;13.332;2023-04-03T14:58:19;5.40;;;1.43;;
19095;SDS011;9680;52.520;13.332;2023-04-03T15:00:48;2.33;;;0.90;;
19095;SDS011;9680;52.520;13.332;2023-04-03T15:03:15;2.37;;;1.17;;
19095;SDS011;9680;52.520;13.332;2023-04-03T15:05:43;4.10;;;1.07;;
19095;SDS011;9680;52.520;13.332;2023-04-03T15:08:17;4.07;;;1.00;;
19095;SDS011;9680;52.520;13.332;2023-04-03T15:10:46;3.27;;;0.90;;
19095;SDS011;9680;52.520;13.332;2023-04-03T15:13:13;2.13;;;0.80;;
19095;SDS011;9680;52.520;13.332;2023-04-03T15:15:40;1.83;;;0.93;;
19095;SDS011;9680;52.520;13.332;2023-04-03T15:18:11;3.90;;;1.00;;
19095;SDS011;9680;52.520;13.332;2023-04-03T15:20:42;4.53;;;1.07;;